Time;durP1;ratioP1;P1;durP2;ratioP2;P2;SDS_P1;SDS_P2;PMS_P1;PMS_P2;Temp;Humidity;BMP_temperature;BMP_pressure;BME280_temperature;BME280_humidity;BME280_pressure;Samples;Min_cycle;Max_cycle;Signal;HPM_P1;HPM_P2
2023/04/25 00:01:42;;;;;;;3.03;2.73;;;;;;;11.14;72.22;98158.63;5114171;28;41734;-81
2023/04/25 00:04:12;;;;;;;3.43;2.83;;;;;;;11.14;72.28;98163.94;5096338;28;42786;-79
2023/04/25 00:06:40;;;;;;;3.90;3.00;;;;;;;11.13;71.95;98156.94;5095915;28;42713;-82
2023/04/25 00:09:09;;;;;;;3.20;2.57;;;;;;;11.16;72.12;98164.66;5079028;28;41160;-77
2023/04/25 00:11:37;;;;;;;3.57;3.13;;;;;;;11.04;71.72;98141.75;5078675;28;41365;-81
2023/04/25 00:14:06;;;;;;;3.00;2.70;;;;;;;11.18;71.99;98166.34;5079472;28;40261;-80
2023/04/25 00:16:34;;;;;;;3.23;2.90;;;;;;;11.18;71.78;98161.06;5079081;28;41655;-82
2023/04/25 00:19:03;;;;;;;3.40;3.10;;;;;;;10.89;71.50;98113.75;5096096;28;43279;-81
2023/04/25 00:21:32;;;;;;;2.87;2.63;;;;;;;11.12;71.43;98143.81;5096073;28;41955;-78
2023/04/25 00:24:00;;;;;;;3.20;2.63;;;;;;;11.20;71.84;98151.19;5078995;28;42198;-82
2023/04/25 00:26:28;;;;;;;2.80;2.60;;;;;;;11.26;71.66;98158.66;5095425;28;43716;-80
2023/04/25 00:28:55;;;;;;;3.43;2.70;;;;;;;11.20;71.53;98137.94;5095994;28;43047;-81
2023/04/25 00:31:23;;;;;;;3.10;2.73;;;;;;;11.27;71.72;98141.78;5078786;28;40038;-83
2023/04/25 00:33:50;;;;;;;3.07;2.77;;;;;;;11.27;71.54;98141.78;5095915;28;41631;-79
2023/04/25 00:36:18;;;;;;;3.47;3.10;;;;;;;11.24;71.49;98136.75;5078789;28;42383;-81
2023/04/25 00:38:47;;;;;;;3.80;3.27;;;;;;;11.23;71.80;98140.34;5095722;28;42991;-80
2023/04/25 00:41:15;;;;;;;3.33;3.03;;;;;;;11.15;71.64;98131.16;5095292;28;40006;-84
2023/04/25 00:43:43;;;;;;;3.27;2.93;;;;;;;11.08;71.85;98119.34;5095811;28;42712;-82
2023/04/25 00:46:11;;;;;;;4.27;3.40;;;;;;;11.10;71.97;98128.03;5078190;28;42879;-80
2023/04/25 00:48:38;;;;;;;3.70;3.40;;;;;;;11.11;72.56;98140.34;5078404;28;41427;-82
2023/04/25 00:51:06;;;;;;;3.53;3.00;;;;;;;11.06;72.34;98137.19;5078496;28;41072;-85
2023/04/25 00:53:34;;;;;;;3.50;3.20;;;;;;;10.92;72.19;98116.19;5095521;28;42739;-80
2023/04/25 00:56:03;;;;;;;3.57;3.13;;;;;;;11.00;73.22;98128.88;5078404;28;41791;-79
2023/04/25 00:58:31;;;;;;;3.47;3.17;;;;;;;10.97;72.69;98129.09;5095350;28;43011;-80
2023/04/25 01:01:00;;;;;;;3.40;2.97;;;;;;;10.93;72.53;98128.47;5095556;28;41000;-77
2023/04/25 01:03:28;;;;;;;3.27;2.83;;;;;;;10.88;72.56;98109.41;5078347;28;40305;-80
2023/04/25 01:05:56;;;;;;;3.87;3.47;;;;;;;10.88;73.03;98096.16;5095346;28;43572;-82
2023/04/25 01:08:25;;;;;;;3.60;3.30;;;;;;;10.94;73.25;98111.63;5094579;28;42257;-80
2023/04/25 01:10:53;;;;;;;2.90;2.70;;;;;;;11.02;73.14;98121.63;5095005;28;40920;-79
2023/04/25 01:13:22;;;;;;;3.70;3.33;;;;;;;11.05;73.50;98124.88;5094291;28;40689;-82
2023/04/25 01:15:51;;;;;;;3.67;3.10;;;;;;;11.04;72.84;98125.00;5077939;28;43130;-78
2023/04/25 01:18:20;;;;;;;4.13;3.10;;;;;;;10.96;73.11;98117.66;5078085;28;41204;-80
2023/04/25 01:20:51;;;;;;;3.30;2.97;;;;;;;10.93;73.09;98112.56;5094761;28;41513;-81
2023/04/25 01:23:21;;;;;;;3.80;3.37;;;;;;;11.01;73.25;98118.13;5077706;28;40678;-77
2023/04/25 01:25:49;;;;;;;3.20;2.87;;;;;;;11.00;72.77;98123.56;5077480;28;43854;-78
2023/04/25 01:28:17;;;;;;;4.97;2.93;;;;;;;10.97;72.99;98121.97;5077391;28;41221;-80
2023/04/25 01:30:46;;;;;;;3.73;3.30;;;;;;;10.84;73.11;98107.97;5094568;28;41202;-84
2023/04/25 01:33:15;;;;;;;3.13;2.83;;;;;;;10.88;73.28;98122.66;5094314;28;40294;-82
2023/04/25 01:35:42;;;;;;;3.13;2.83;;;;;;;10.68;74.69;98113.56;5077464;28;43096;-81
2023/04/25 01:38:13;;;;;;;3.83;2.97;;;;;;;10.52;75.02;98110.38;5077920;28;41603;-80
2023/04/25 01:40:42;;;;;;;2.53;2.33;;;;;;;10.46;75.90;98112.63;5094994;28;40623;-80
2023/04/25 01:43:11;;;;;;;3.10;2.80;;;;;;;10.21;75.99;98087.97;5094546;28;42744;-79
2023/04/25 01:45:40;;;;;;;2.70;2.50;;;;;;;10.33;76.71;98118.00;5077206;28;42950;-80
2023/04/25 01:48:09;;;;;;;3.27;2.97;;;;;;;10.28;77.02;98113.03;5094364;28;42551;-80
2023/04/25 01:50:38;;;;;;;2.97;2.70;;;;;;;10.14;76.86;98086.69;5094565;28;40895;-85
2023/04/25 01:53:06;;;;;;;2.87;2.47;;;;;;;9.98;77.11;98076.41;5077353;28;41831;-80
2023/04/25 01:55:33;;;;;;;2.90;2.70;;;;;;;10.14;77.17;98101.75;5077207;28;41842;-82
2023/04/25 01:58:12;;;;;;;2.97;2.50;;;;;;;10.20;76.98;98112.75;5077482;28;41629;-78
2023/04/25 02:00:58;;;;;;;3.10;2.80;;;;;;;10.20;76.99;98115.38;5077428;28;39531;-79
2023/04/25 02:03:31;;;;;;;3.60;2.70;;;;;;;10.15;77.40;98114.84;5076779;28;40589;-79
2023/04/25 02:05:59;;;;;;;2.40;2.20;;;;;;;10.11;77.44;98108.09;5093989;28;43629;-78
2023/04/25 02:08:27;;;;;;;2.70;2.50;;;;;;;9.92;77.76;98086.56;5077111;28;42360;-78
2023/04/25 02:10:56;;;;;;;2.27;2.07;;;;;;;10.07;77.34;98117.19;5077277;28;39962;-79
2023/04/25 02:13:26;;;;;;;2.73;2.30;;;;;;;10.04;77.97;98106.84;5077043;28;41466;-84
2023/04/25 02:16:23;;;;;;;3.00;2.53;;;;;;;10.03;78.11;98108.63;5021190;28;43492;-81
2023/04/25 02:18:52;;;;;;;3.60;2.37;;;;;;;9.98;78.10;98109.94;5078063;28;41650;-81
2023/04/25 02:21:20;;;;;;;2.60;2.40;;;;;;;9.59;78.25;98058.94;5080434;28;39896;-81
2023/04/25 02:23:49;;;;;;;2.67;2.47;;;;;;;9.94;78.24;98116.38;5080794;28;40724;-80
2023/04/25 02:26:16;;;;;;;2.40;2.20;;;;;;;9.92;79.12;98115.66;5080521;28;41731;-77
2023/04/25 02:28:45;;;;;;;2.60;2.40;;;;;;;9.90;79.62;98115.75;5080519;28;42806;-83
2023/04/25 02:31:13;;;;;;;2.30;2.10;;;;;;;9.89;79.45;98113.25;5115305;28;40980;-80
2023/04/25 02:33:41;;;;;;;3.53;2.10;;;;;;;9.84;79.87;98116.22;5097356;28;41735;-83
2023/04/25 02:36:08;;;;;;;2.40;1.97;;;;;;;9.82;80.24;98122.56;5097392;28;42859;-80
2023/04/25 02:38:36;;;;;;;2.53;2.33;;;;;;;9.71;80.37;98108.31;5097228;28;42458;-80
2023/04/25 02:41:05;;;;;;;2.73;2.27;;;;;;;9.80;80.09;98119.16;5097112;28;40904;-79
2023/04/25 02:43:33;;;;;;;2.90;2.07;;;;;;;9.78;80.92;98115.78;5096916;28;42534;-81
2023/04/25 02:46:02;;;;;;;1.97;1.70;;;;;;;9.65;80.66;98095.50;5097099;28;43756;-82
2023/04/25 02:48:30;;;;;;;3.40;2.23;;;;;;;9.73;80.60;98114.34;5079853;28;42319;-82
2023/04/25 02:50:57;;;;;;;3.37;2.23;;;;;;;9.71;80.38;98116.22;5097008;28;40872;-79
2023/04/25 02:53:25;;;;;;;2.10;2.00;;;;;;;9.63;80.84;98097.44;5079906;28;40979;-81
2023/04/25 02:55:54;;;;;;;2.10;1.90;;;;;;;9.65;80.69;98113.16;5080028;28;43186;-79
2023/04/25 02:58:22;;;;;;;2.30;2.10;;;;;;;9.68;80.45;98120.88;5079982;28;41342;-82
2023/04/25 03:00:52;;;;;;;2.00;1.90;;;;;;;9.66;80.25;98122.78;5079917;28;39646;-82
2023/04/25 03:03:21;;;;;;;1.83;1.73;;;;;;;9.63;80.29;98115.94;5079793;28;41038;-84
2023/04/25 03:05:50;;;;;;;2.47;1.40;;;;;;;9.67;80.73;98108.63;5079593;28;43261;-81
2023/04/25 03:08:21;;;;;;;2.27;2.07;;;;;;;9.66;80.54;98104.28;5079493;28;41045;-83
2023/04/25 03:10:50;;;;;;;1.70;1.60;;;;;;;9.67;80.59;98109.47;5079634;28;39757;-81
2023/04/25 03:13:17;;;;;;;2.37;1.93;;;;;;;9.67;80.24;98111.25;5096103;28;41614;-81
2023/04/25 03:15:45;;;;;;;1.70;1.60;;;;;;;9.65;80.12;98121.09;5079406;28;41642;-81
2023/04/25 03:18:13;;;;;;;2.00;1.80;;;;;;;9.63;80.67;98113.28;5079454;28;40980;-84
2023/04/25 03:20:42;;;;;;;1.83;1.73;;;;;;;9.61;80.38;98117.84;5096462;28;40888;-80
2023/04/25 03:23:10;;;;;;;2.13;1.70;;;;;;;9.56;80.57;98114.66;5096574;28;41771;-83
2023/04/25 03:25:40;;;;;;;2.00;1.90;;;;;;;9.62;80.48;98126.63;5096358;28;42685;-80
2023/04/25 03:28:08;;;;;;;2.07;1.90;;;;;;;9.64;80.78;98120.25;5096466;28;42788;-80
2023/04/25 03:30:35;;;;;;;1.70;1.60;;;;;;;9.66;80.69;98115.69;5079277;28;40181;-82
2023/04/25 03:33:03;;;;;;;2.63;2.13;;;;;;;9.67;81.00;98114.75;5078704;28;40401;-79
2023/04/25 03:35:31;;;;;;;2.17;2.03;;;;;;;9.66;80.13;98121.00;5096197;28;42708;-81
2023/04/25 03:38:00;;;;;;;2.13;1.93;;;;;;;9.58;80.17;98110.13;5079114;28;42407;-78
2023/04/25 03:40:32;;;;;;;2.23;2.07;;;;;;;9.60;80.32;98118.78;5079009;28;40153;-81
2023/04/25 03:43:15;;;;;;;2.47;2.27;;;;;;;9.56;80.60;98114.66;5093038;28;41816;-80
2023/04/25 03:45:49;;;;;;;2.53;2.17;;;;;;;9.56;80.27;98121.75;5094183;28;42801;-81
2023/04/25 03:48:21;;;;;;;3.73;2.30;;;;;;;9.51;80.58;98124.72;5092974;28;42261;-82
2023/04/25 03:50:49;;;;;;;2.60;2.40;;;;;;;9.47;81.18;98117.97;5078932;28;40080;-79
2023/04/25 03:53:18;;;;;;;2.83;2.60;;;;;;;9.47;81.13;98122.41;5095914;28;41797;-82
2023/04/25 03:56:06;;;;;;;2.90;2.70;;;;;;;9.46;81.23;98124.19;5112465;28;43681;-81
2023/04/25 03:58:36;;;;;;;3.17;2.97;;;;;;;9.46;80.73;98113.63;5078820;28;41499;-82
2023/04/25 04:01:07;;;;;;;3.10;2.80;;;;;;;9.54;80.81;98124.50;5078465;28;39874;-80
2023/04/25 04:03:36;;;;;;;3.67;3.37;;;;;;;9.49;80.25;98118.69;5078719;28;41488;-83
2023/04/25 04:06:05;;;;;;;4.00;3.60;;;;;;;9.57;80.94;98126.09;5078667;28;41488;-78
2023/04/25 04:08:37;;;;;;;4.10;3.40;;;;;;;9.56;80.43;98117.31;5078931;28;41994;-79
2023/04/25 04:11:05;;;;;;;4.03;3.63;;;;;;;9.63;80.30;98123.03;5078270;28;40387;-78
2023/04/25 04:13:33;;;;;;;4.43;4.03;;;;;;;9.64;80.31;98130.81;5095122;28;41739;-78
2023/04/25 04:16:03;;;;;;;4.10;3.70;;;;;;;9.65;80.11;98137.81;5095425;28;42726;-83
2023/04/25 04:18:33;;;;;;;4.00;3.60;;;;;;;9.67;79.94;98141.19;5095435;28;42543;-83
2023/04/25 04:21:00;;;;;;;4.90;4.40;;;;;;;9.56;80.21;98135.81;5095621;28;40977;-81
2023/04/25 04:23:31;;;;;;;4.37;3.97;;;;;;;9.68;80.29;98142.88;5095626;28;41455;-78
2023/04/25 04:26:01;;;;;;;4.07;3.67;;;;;;;9.63;80.00;98137.09;5078134;28;41666;-80
2023/04/25 04:28:45;;;;;;;5.63;4.47;;;;;;;9.71;79.66;98142.66;5063837;28;41138;-78
2023/04/25 04:31:23;;;;;;;4.47;3.83;;;;;;;9.68;79.53;98129.66;5077851;28;39930;-83
2023/04/25 04:33:52;;;;;;;4.30;3.70;;;;;;;9.83;79.80;98138.31;5078120;28;41729;-82
2023/04/25 04:36:21;;;;;;;5.07;4.43;;;;;;;9.83;79.52;98150.69;5077583;28;42157;-79
2023/04/25 04:38:50;;;;;;;5.73;5.00;;;;;;;9.88;79.50;98154.72;5078391;28;41689;-78
2023/04/25 04:41:31;;;;;;;5.23;4.73;;;;;;;9.88;79.38;98143.28;5094493;28;41686;-79
2023/04/25 04:44:09;;;;;;;5.13;4.63;;;;;;;9.85;79.55;98152.28;5090932;28;42521;-81
2023/04/25 04:46:47;;;;;;;5.73;5.23;;;;;;;9.73;79.42;98135.47;5078057;28;41793;-80
2023/04/25 04:49:33;;;;;;;7.07;5.30;;;;;;;9.84;79.49;98149.75;5109918;28;42415;-79
2023/04/25 04:52:24;;;;;;;5.13;4.63;;;;;;;9.87;79.65;98155.66;5094710;28;41837;-79
2023/04/25 04:54:57;;;;;;;5.97;5.37;;;;;;;9.88;79.60;98153.88;5077869;28;40415;-80
2023/04/25 04:57:55;;;;;;;6.20;5.60;;;;;;;9.88;79.64;98153.88;5040515;28;41615;-80
2023/04/25 05:00:32;;;;;;;6.17;5.57;;;;;;;9.89;79.48;98155.56;5077673;28;41192;-79
2023/04/25 05:03:19;;;;;;;6.80;5.87;;;;;;;9.90;79.27;98160.72;5094990;28;40157;-79
2023/04/25 05:06:06;;;;;;;5.90;5.30;;;;;;;9.89;79.39;98160.84;5094731;28;41745;-80
2023/04/25 05:08:45;;;;;;;6.20;5.13;;;;;;;9.91;79.45;98164.22;5077670;28;41766;-81
2023/04/25 05:11:27;;;;;;;6.67;5.83;;;;;;;9.92;79.09;98161.47;5093024;28;43024;-80
2023/04/25 05:14:25;;;;;;;5.60;5.07;;;;;;;9.94;78.81;98156.06;5040101;28;39833;-82
2023/04/25 05:17:12;;;;;;;6.80;5.60;;;;;;;9.99;78.54;98172.47;5094529;28;40961;-80
2023/04/25 05:19:54;;;;;;;6.93;6.13;;;;;;;10.03;78.54;98169.47;5091610;28;44072;-80
2023/04/25 05:22:35;;;;;;;6.10;5.43;;;;;;;10.09;78.28;98169.06;5077892;28;41587;-78
2023/04/25 05:25:13;;;;;;;7.40;5.73;;;;;;;10.02;78.44;98156.34;5077144;28;39759;-81
2023/04/25 05:27:50;;;;;;;6.43;5.37;;;;;;;10.08;78.04;98153.28;5094236;28;41682;-80
2023/04/25 05:30:40;;;;;;;7.20;6.20;;;;;;;10.25;77.93;98174.13;5093797;28;43581;-81
2023/04/25 05:33:12;;;;;;;6.97;6.27;;;;;;;10.29;77.58;98170.28;5091452;28;42538;-81
2023/04/25 05:35:40;;;;;;;6.97;6.27;;;;;;;10.35;77.38;98172.50;5076972;28;39806;-80
2023/04/25 05:38:07;;;;;;;7.33;5.83;;;;;;;10.41;77.49;98179.97;5094414;28;41718;-80
2023/04/25 05:40:53;;;;;;;5.43;4.93;;;;;;;10.43;77.53;98169.28;5110140;28;43843;-80
2023/04/25 05:43:45;;;;;;;6.43;5.83;;;;;;;10.56;77.05;98174.53;5111222;28;42067;-81
2023/04/25 05:46:43;;;;;;;6.90;6.20;;;;;;;10.71;76.97;98182.19;5072504;28;41321;-78
2023/04/25 05:49:30;;;;;;;6.60;5.97;;;;;;;10.83;76.36;98195.50;5109067;28;42490;-79
2023/04/25 05:52:17;;;;;;;6.53;5.90;;;;;;;10.98;76.18;98197.00;5111995;28;42656;-80
2023/04/25 05:54:49;;;;;;;6.17;5.57;;;;;;;11.11;75.60;98192.47;5078005;28;41146;-80
2023/04/25 05:57:22;;;;;;;6.00;5.40;;;;;;;11.18;75.34;98185.75;5092440;28;40757;-77
2023/04/25 05:59:49;;;;;;;6.17;5.57;;;;;;;11.34;74.92;98199.53;5058897;28;40908;-77
2023/04/25 06:02:20;;;;;;;8.77;6.23;;;;;;;11.46;74.33;98205.72;5077424;28;43750;-77
2023/04/25 06:04:50;;;;;;;6.20;5.60;;;;;;;11.59;74.06;98209.13;5080449;28;42013;-79
2023/04/25 06:07:17;;;;;;;9.00;6.33;;;;;;;11.75;73.17;98209.63;5078269;28;41217;-78
2023/04/25 06:09:45;;;;;;;6.63;6.00;;;;;;;11.76;72.48;98206.00;5078261;28;42531;-76
2023/04/25 06:12:13;;;;;;;6.13;5.43;;;;;;;11.99;71.21;98224.63;5095942;28;42830;-85
2023/04/25 06:14:42;;;;;;;8.10;6.13;;;;;;;12.14;71.19;98232.22;5097163;28;42067;-80
2023/04/25 06:17:09;;;;;;;6.87;5.73;;;;;;;12.28;71.18;98231.13;5096647;28;41011;-79
2023/04/25 06:19:38;;;;;;;6.60;5.90;;;;;;;12.38;70.52;98234.72;5096771;28;41962;-85
2023/04/25 06:22:07;;;;;;;7.73;6.93;;;;;;;12.42;69.62;98238.84;5080088;28;41824;-87
2023/04/25 06:24:35;;;;;;;7.23;5.67;;;;;;;12.46;68.26;98242.94;5059751;28;42298;-78
2023/04/25 06:27:05;;;;;;;5.93;5.33;;;;;;;12.52;68.13;98239.78;5059500;28;40834;-81
2023/04/25 06:29:32;;;;;;;7.23;4.73;;;;;;;12.59;68.20;98238.34;5096624;28;41775;-83
2023/04/25 06:32:00;;;;;;;6.17;5.20;;;;;;;12.75;67.25;98239.72;5096636;28;42932;-78
2023/04/25 06:34:27;;;;;;;5.50;4.83;;;;;;;12.49;66.43;98196.69;5079189;28;41247;-80
2023/04/25 06:36:56;;;;;;;7.50;5.30;;;;;;;12.88;65.58;98235.97;5096736;28;40924;-75
2023/04/25 06:39:25;;;;;;;5.90;5.30;;;;;;;13.12;64.35;98259.69;5079312;28;41672;-78
2023/04/25 06:41:53;;;;;;;7.27;5.60;;;;;;;13.27;62.91;98269.09;5079544;28;42707;-78
2023/04/25 06:44:56;;;;;;;6.70;5.10;;;;;;;13.39;61.98;98267.22;5035006;28;41157;-79
2023/04/25 06:47:23;;;;;;;5.87;5.27;;;;;;;13.46;59.74;98283.53;5052812;28;39854;-79
2023/04/25 06:49:51;;;;;;;6.60;4.40;;;;;;;13.51;59.40;98281.31;5079436;28;42170;-76
2023/04/25 06:52:20;;;;;;;6.23;4.47;;;;;;;13.63;58.95;98286.44;5096317;28;42717;-78
2023/04/25 06:54:48;;;;;;;5.43;4.17;;;;;;;13.81;59.04;98289.41;5096540;28;43402;-82
2023/04/25 06:57:45;;;;;;;4.93;4.43;;;;;;;14.15;58.08;98297.16;5041532;28;42026;-80
2023/04/25 07:00:44;;;;;;;6.20;4.10;;;;;;;14.42;56.29;98301.97;5097396;28;41451;-80
2023/04/25 07:03:12;;;;;;;8.53;4.60;;;;;;;14.55;55.75;98306.09;5114332;28;43761;-83
2023/04/25 07:05:39;;;;;;;7.33;4.70;;;;;;;14.70;55.15;98304.75;5095858;28;42255;-80
2023/04/25 07:08:08;;;;;;;4.67;4.17;;;;;;;14.96;54.89;98309.59;5078898;28;39944;-80
2023/04/25 07:10:36;;;;;;;6.10;4.33;;;;;;;15.09;53.87;98318.16;5096733;28;42519;-78
2023/04/25 07:13:04;;;;;;;5.20;3.87;;;;;;;15.12;51.59;98320.56;5095587;28;42531;-80
2023/04/25 07:15:33;;;;;;;4.80;3.67;;;;;;;15.36;52.30;98322.84;5080590;28;20229;-82
2023/04/25 07:18:02;;;;;;;7.27;3.90;;;;;;;15.43;51.48;98324.84;5095461;28;40793;-78
2023/04/25 07:20:30;;;;;;;7.57;4.47;;;;;;;15.39;51.17;98322.56;5095811;28;41697;-79
2023/04/25 07:22:59;;;;;;;7.03;3.57;;;;;;;15.25;51.76;98291.78;5078438;28;42744;-79
2023/04/25 07:25:28;;;;;;;5.17;3.77;;;;;;;15.33;51.00;98318.63;5078837;28;42322;-78
2023/04/25 07:27:56;;;;;;;4.00;3.60;;;;;;;15.37;51.73;98325.38;5091741;28;41010;-78
2023/04/25 07:30:24;;;;;;;3.70;3.37;;;;;;;15.31;51.98;98315.28;5095793;28;42722;-82
2023/04/25 07:32:51;;;;;;;4.93;3.37;;;;;;;15.34;51.70;98325.63;5078792;28;42863;-80
2023/04/25 07:35:19;;;;;;;5.13;3.30;;;;;;;15.39;51.09;98323.41;5095533;28;42398;-79
2023/04/25 07:37:47;;;;;;;7.30;3.20;;;;;;;15.55;50.28;98328.25;5078211;28;40870;-80
2023/04/25 07:40:18;;;;;;;4.47;2.50;;;;;;;15.75;48.58;98335.25;5092767;28;41628;-80
2023/04/25 07:42:52;;;;;;;3.93;2.70;;;;;;;15.87;48.19;98327.94;5092106;28;43728;-79
2023/04/25 07:45:27;;;;;;;4.57;2.97;;;;;;;16.34;48.10;98346.69;5078484;28;41503;-78
2023/04/25 07:47:55;;;;;;;3.60;2.40;;;;;;;17.58;46.81;98355.97;5095497;28;40995;-80
2023/04/25 07:50:22;;;;;;;2.17;1.97;;;;;;;19.22;41.97;98380.31;5078641;28;41030;-85
2023/04/25 07:52:50;;;;;;;3.67;2.10;;;;;;;19.85;41.34;98382.53;5095306;28;42903;-81
2023/04/25 07:55:36;;;;;;;2.93;1.80;;;;;;;19.91;40.52;98387.22;5078420;28;40973;-80
2023/04/25 07:58:13;;;;;;;3.90;2.10;;;;;;;20.06;37.72;98407.91;5092354;28;40846;-84
2023/04/25 08:00:43;;;;;;;2.10;1.67;;;;;;;20.51;37.25;98403.09;5078686;28;41194;-80
2023/04/25 08:03:49;;;;;;;2.93;1.97;;;;;;;20.80;36.45;98393.44;5013703;28;41986;-81
2023/04/25 08:06:31;;;;;;;3.90;1.97;;;;;;;20.82;36.96;98406.72;5013467;28;41498;-81
2023/04/25 08:09:10;;;;;;;1.77;1.47;;;;;;;21.00;36.44;98410.06;5071693;28;42012;-80
2023/04/25 08:11:41;;;;;;;2.60;1.70;;;;;;;21.31;35.23;98426.31;5093296;28;42738;-79
2023/04/25 08:14:13;;;;;;;3.63;1.77;;;;;;;21.57;34.75;98430.56;5077646;28;41824;-83
2023/04/25 08:16:42;;;;;;;2.83;1.43;;;;;;;21.92;34.69;98432.72;5095831;28;42418;-85
2023/04/25 08:19:10;;;;;;;1.53;1.40;;;;;;;22.26;33.02;98431.50;5081509;28;40147;-87
2023/04/25 08:21:38;;;;;;;2.90;1.73;;;;;;;22.66;33.00;98449.22;5081071;28;40769;-82
2023/04/25 08:24:10;;;;;;;2.00;1.50;;;;;;;22.79;33.58;98441.38;5098260;28;43672;-80
2023/04/25 08:26:41;;;;;;;2.57;1.40;;;;;;;22.83;33.60;98442.72;5079770;28;42599;-79
2023/04/25 08:29:10;;;;;;;3.17;1.60;;;;;;;23.03;32.95;98441.13;5094238;28;39974;-85
2023/04/25 08:31:42;;;;;;;2.60;1.50;;;;;;;23.50;31.58;98448.91;5078364;28;40622;-81
2023/04/25 08:34:10;;;;;;;3.83;1.90;;;;;;;24.30;31.39;98439.88;5078092;28;43291;-83
2023/04/25 08:36:48;;;;;;;1.77;1.40;;;;;;;25.35;28.72;98454.28;5094461;28;42635;-81
2023/04/25 08:39:35;;;;;;;5.30;1.57;;;;;;;26.73;27.83;98472.94;5078313;28;40002;-82
2023/04/25 08:42:16;;;;;;;2.10;1.43;;;;;;;27.16;26.88;98480.72;5094603;28;40699;-80
2023/04/25 08:44:45;;;;;;;3.47;1.70;;;;;;;27.08;26.76;98468.16;5094915;28;42801;-83
2023/04/25 08:47:15;;;;;;;2.63;1.60;;;;;;;27.15;27.20;98482.59;5077808;28;42325;-82
2023/04/25 08:49:48;;;;;;;3.80;1.57;;;;;;;26.86;27.49;98479.44;5078369;28;40900;-82
2023/04/25 08:52:22;;;;;;;2.90;1.70;;;;;;;26.79;27.49;98476.72;5094140;28;41475;-82
2023/04/25 08:54:50;;;;;;;2.60;1.93;;;;;;;26.70;27.48;98486.13;5078292;28;41753;-78
2023/04/25 08:57:19;;;;;;;1.73;1.40;;;;;;;26.30;28.35;98480.63;5076920;28;41327;-79
2023/04/25 08:59:50;;;;;;;1.77;1.63;;;;;;;25.91;28.83;98473.16;5095044;28;41558;-79
2023/04/25 09:02:20;;;;;;;3.20;1.70;;;;;;;26.52;29.01;98475.00;5093702;28;41861;-78
2023/04/25 09:04:51;;;;;;;1.70;1.20;;;;;;;27.96;26.08;98490.34;5077383;28;43524;-80
2023/04/25 09:07:21;;;;;;;1.40;1.30;;;;;;;29.52;23.80;98496.03;5094145;28;42232;-85
2023/04/25 09:09:48;;;;;;;1.20;1.00;;;;;;;30.80;23.69;98499.41;5077683;28;39766;-82
2023/04/25 09:12:20;;;;;;;2.97;1.20;;;;;;;31.28;22.65;98510.22;5076363;28;40686;-78
2023/04/25 09:15:04;;;;;;;2.83;1.50;;;;;;;31.21;22.66;98511.41;5077157;28;41614;-76
2023/04/25 09:18:08;;;;;;;1.50;1.30;;;;;;;29.75;22.93;98506.25;5031588;28;42279;-81
2023/04/25 09:20:42;;;;;;;1.80;1.20;;;;;;;29.86;23.85;98500.03;5086931;28;41417;-76
2023/04/25 09:23:10;;;;;;;2.93;1.40;;;;;;;30.41;21.46;98503.56;5093654;28;40465;-78
2023/04/25 09:25:39;;;;;;;1.60;1.30;;;;;;;31.24;22.50;98510.94;5076560;28;43534;-77
2023/04/25 09:28:09;;;;;;;2.90;1.43;;;;;;;31.53;22.20;98511.91;5092801;28;44626;-78
2023/04/25 09:30:37;;;;;;;1.50;1.13;;;;;;;31.07;21.83;98525.28;5092994;28;40966;-76
2023/04/25 09:33:20;;;;;;;1.53;1.43;;;;;;;30.42;22.25;98534.44;5090206;28;42691;-78
2023/04/25 09:35:55;;;;;;;1.27;1.13;;;;;;;29.63;23.17;98523.41;5076592;28;41941;-77
2023/04/25 09:38:42;;;;;;;1.63;1.30;;;;;;;28.53;23.98;98502.25;5090431;28;42422;-78
2023/04/25 09:41:24;;;;;;;1.33;1.03;;;;;;;27.70;24.53;98510.31;5092347;28;41871;-79
2023/04/25 09:43:52;;;;;;;1.37;1.20;;;;;;;26.66;26.07;98493.84;5076621;28;41804;-80
2023/04/25 09:46:20;;;;;;;1.37;1.23;;;;;;;25.85;26.61;98511.94;5093462;28;43775;-79
2023/04/25 09:48:54;;;;;;;1.80;1.37;;;;;;;24.99;26.10;98511.34;5090518;28;42966;-78
2023/04/25 09:51:36;;;;;;;1.30;1.13;;;;;;;24.16;27.16;98517.34;5076328;28;40004;-80
2023/04/25 09:54:07;;;;;;;1.17;1.13;;;;;;;23.91;28.83;98500.59;5090357;28;41924;-79
2023/04/25 09:56:43;;;;;;;1.93;1.50;;;;;;;23.29;28.12;98490.16;5076709;28;41793;-79
2023/04/25 09:59:13;;;;;;;2.90;1.30;;;;;;;22.80;30.14;98505.16;5076172;28;41484;-79
2023/04/25 10:01:42;;;;;;;1.50;1.40;;;;;;;22.23;30.31;98502.88;5076446;28;40777;-82
2023/04/25 10:04:20;;;;;;;2.27;1.63;;;;;;;21.60;30.70;98505.69;5090248;28;41901;-81
2023/04/25 10:06:52;;;;;;;2.97;1.30;;;;;;;21.13;31.71;98491.16;5093577;28;41662;-79
2023/04/25 10:09:22;;;;;;;1.40;1.30;;;;;;;20.91;32.29;98494.53;5076282;28;40878;-80
2023/04/25 10:11:51;;;;;;;1.90;1.67;;;;;;;20.99;32.27;98496.38;5075678;28;40295;-80
2023/04/25 10:14:20;;;;;;;2.83;1.63;;;;;;;21.35;33.16;98486.06;5075972;28;42065;-81
2023/04/25 10:16:48;;;;;;;2.57;1.63;;;;;;;21.85;32.79;98494.63;5076413;28;43565;-78
2023/04/25 10:19:17;;;;;;;2.77;1.60;;;;;;;22.25;31.54;98503.53;5092672;28;42317;-77
2023/04/25 10:21:50;;;;;;;1.97;1.87;;;;;;;22.50;30.04;98515.81;5075389;28;39800;-77
2023/04/25 10:24:17;;;;;;;2.77;1.60;;;;;;;22.65;31.10;98506.94;5107623;28;41828;-78
2023/04/25 10:26:46;;;;;;;2.23;1.70;;;;;;;22.86;30.44;98520.66;5110399;28;42771;-78
2023/04/25 10:29:23;;;;;;;1.97;1.73;;;;;;;22.70;30.83;98515.34;5091905;28;43145;-77
2023/04/25 10:31:51;;;;;;;3.10;1.60;;;;;;;22.50;30.57;98515.81;5092508;28;39717;-77
2023/04/25 10:34:24;;;;;;;1.90;1.50;;;;;;;22.65;30.49;98506.94;5075384;28;40573;-78
2023/04/25 10:36:53;;;;;;;1.70;1.50;;;;;;;23.11;30.14;98511.31;5076231;28;41826;-79
2023/04/25 10:39:25;;;;;;;2.00;1.60;;;;;;;23.75;29.23;98517.03;5075646;28;42374;-79
2023/04/25 10:41:58;;;;;;;4.20;1.70;;;;;;;24.52;28.27;98509.22;5093272;28;41698;-80
2023/04/25 10:44:28;;;;;;;1.97;1.13;;;;;;;24.60;27.98;98529.94;5079080;28;41633;-78
2023/04/25 10:46:57;;;;;;;2.03;1.60;;;;;;;24.85;28.31;98516.84;5096562;28;41717;-87
2023/04/25 10:49:37;;;;;;;2.00;1.50;;;;;;;24.84;28.01;98504.34;5079516;28;42613;-85
2023/04/25 10:52:17;;;;;;;2.87;1.67;;;;;;;25.94;26.56;98534.34;5079044;28;39932;-79
2023/04/25 10:54:47;;;;;;;1.70;1.60;;;;;;;28.05;25.53;98532.63;5093859;28;42683;-78
2023/04/25 10:57:32;;;;;;;1.70;1.60;;;;;;;27.36;24.55;98560.38;5058983;28;41826;-77
2023/04/25 11:00:04;;;;;;;2.90;1.60;;;;;;;26.42;25.35;98557.72;5079315;28;42842;-79
2023/04/25 11:02:33;;;;;;;1.70;1.60;;;;;;;25.48;26.48;98547.56;5079293;28;40947;-76
2023/04/25 11:05:01;;;;;;;1.73;1.50;;;;;;;24.60;27.75;98544.28;5096403;28;42121;-77
2023/04/25 11:07:38;;;;;;;3.77;1.37;;;;;;;23.87;27.62;98537.16;5078948;28;42857;-78
2023/04/25 11:10:07;;;;;;;2.07;1.40;;;;;;;23.22;28.62;98540.56;5093060;28;42308;-77
2023/04/25 11:12:35;;;;;;;2.37;1.53;;;;;;;22.84;29.56;98539.72;5095175;28;40993;-76
2023/04/25 11:15:04;;;;;;;2.83;1.57;;;;;;;22.60;29.52;98514.75;5078933;28;43873;-77
2023/04/25 11:17:32;;;;;;;1.60;1.50;;;;;;;22.60;30.25;98537.19;5095315;28;44000;-76
2023/04/25 11:20:06;;;;;;;2.30;1.60;;;;;;;22.54;30.64;98525.25;5095743;28;43323;-77
2023/04/25 11:22:34;;;;;;;2.47;1.67;;;;;;;22.46;31.23;98508.28;5092655;28;41017;-81
2023/04/25 11:25:06;;;;;;;2.43;1.63;;;;;;;22.24;30.52;98526.13;5079195;28;41360;-78
2023/04/25 11:27:34;;;;;;;2.60;1.57;;;;;;;21.95;30.49;98523.22;5110628;28;42963;-78
2023/04/25 11:30:11;;;;;;;2.17;1.50;;;;;;;21.78;31.10;98520.59;5078890;28;41291;-74
2023/04/25 11:32:41;;;;;;;2.13;1.63;;;;;;;21.46;31.26;98528.78;5091980;28;41943;-74
2023/04/25 11:35:10;;;;;;;3.67;1.90;;;;;;;21.07;32.16;98521.44;5113607;28;42275;-83
2023/04/25 11:37:40;;;;;;;4.33;2.73;;;;;;;20.87;32.42;98520.13;5113513;28;43757;-83
2023/04/25 11:40:10;;;;;;;1.97;1.50;;;;;;;20.69;31.78;98522.13;5078810;28;42423;-81
2023/04/25 11:42:38;;;;;;;2.27;1.47;;;;;;;20.50;32.80;98519.78;5095268;28;41450;-82
2023/04/25 11:45:07;;;;;;;3.90;2.07;;;;;;;20.22;33.58;98514.66;5113625;28;41743;-81
2023/04/25 11:47:35;;;;;;;2.10;1.90;;;;;;;20.07;33.10;98521.66;5078458;28;41566;-78
2023/04/25 11:50:04;;;;;;;2.30;1.67;;;;;;;20.10;33.56;98510.59;5096135;28;43763;-84
2023/04/25 11:52:41;;;;;;;2.50;2.30;;;;;;;20.13;32.20;98526.41;5094858;28;40100;-80
2023/04/25 11:55:10;;;;;;;2.07;1.90;;;;;;;20.27;32.77;98522.22;5096137;28;41099;-78
2023/04/25 11:57:40;;;;;;;2.93;1.63;;;;;;;20.55;33.49;98520.94;5094807;28;43341;-82
2023/04/25 12:00:12;;;;;;;2.70;1.70;;;;;;;20.66;32.71;98530.53;5095512;28;42293;-79